Wind Cave National Park, SD

8:55 PM MDT on July 26, 2016 (GMT -0600)
Hay Creek Road | | Change Station
Active Advisory: Severe Thunderstorm Watch Active Notice: Local Storm Report

Elev 5325 ft 43.70 °N, 103.67 °W | Updated 2 seconds ago

Clear
Clear
60.1 °F
Feels Like 60.1 °F
N
0.0
Wind Variable Wind from SE
Gusts 0.0 mph

Today
High -- | Low -- °F
--% Chance of Precip.
Yesterday
High -- | Low -- °F
Precip. -- in
Pressure 29.98 in
Visibility 10.0 miles
Clouds Clear
Dew Point 58 °F
Humidity 94%
Rainfall 0.79 in
Snow Depth Not available.
5:37 AM 8:23 PM
Waning Gibbous, 48% visible
METAR KCUT 270253Z AUTO 01007KT 10SM CLR 18/12 A3016 RMK AO2 SLP152 60002 T01780122 53001
Pressure 29.98 in
Visibility 10.0 miles
Clouds Clear
Dew Point 58 °F
Humidity 94%
Rainfall 0.79 in
Snow Depth Not available.
5:37 AM 8:23 PM
Waning Gibbous, 48% visible
METAR KCUT 270253Z AUTO 01007KT 10SM CLR 18/12 A3016 RMK AO2 SLP152 60002 T01780122 53001

10-Day Weather Forecast

Almanac

Astronomy

Jul. 26, 2016 Rise Set
Actual Time
Civil Twilight
Nautical Twilight
Astronomical Twilight
Moon
Length of Visible Light
Length of Day
Tomorrow will be .
, % of the Moon is Illuminated

Today's Extremes

State Highs State Lows

Community

WunderPhotos

Upload Photos

1,927,784 photos uploaded!

WunderBlog® & News

Nearby

Air Quality

  Air Quality AQ Index Pollutant
Not available.

Snow Depth

Station Depth Elevation

Earthquake Activity

City Distance Mag. Time & Date
Minimum magnitude displayed is 2.5.

Coastal Water Temperatures

Place Temperature

Stations

Nearby Weather Stations

Station Location Temp. Windchill Dew Point Humidity Wind Precip. Elev Updated Type
                   

Watches & Warnings

Severe Thunderstorm Watch
Issued: 8:48 PM MDT Jul. 26, 2016 – National Weather Service


The National Weather Service has cancelled Severe Thunderstorm
Watch 417 for the following areas

In South Dakota this cancels 8 counties

In south central South Dakota

Mellette Todd Tripp

In southwest South Dakota

Bennett Custer Fall River
Jackson Oglala Lakota

This includes the cities of... Allen... Clearfield... Custer...
Edgemont... Hermosa... Hot Springs... ideal... Kadoka... Kyle...
lacreek wildlife Refuge... Lakeview... Littleburg... Martin...
mission... Oglala... Pine Ridge... Rosebud... Tuthill...
White River and Winner.